createdAt,value
2022-09-22T05:03:38.656Z,46.4
2022-09-22T05:09:16.766Z,46.3
2022-09-22T05:20:21.347Z,46.3
2022-09-22T05:26:03.419Z,46.2
2022-09-22T05:31:45.063Z,46.2
2022-09-22T05:37:22.342Z,46.1
2022-09-22T05:43:41.635Z,46.1
2022-09-22T05:49:20.746Z,46.1
2022-09-22T05:54:58.069Z,46
2022-09-22T06:00:35.910Z,46
2022-09-22T06:06:28.191Z,45.9
2022-09-22T06:11:57.377Z,45.9
2022-09-22T06:17:35.793Z,45.9
2022-09-22T06:23:03.591Z,45.8
2022-09-22T06:28:31.722Z,45.8
2022-09-22T06:34:10.348Z,45.8
2022-09-22T06:39:47.000Z,45.7
2022-09-22T06:45:24.683Z,45.7
2022-09-22T06:51:03.841Z,45.6
2022-09-22T06:56:45.234Z,45.6
2022-09-22T07:02:51.057Z,45.6
2022-09-22T07:08:29.417Z,45.5
2022-09-22T07:14:12.085Z,45.5
2022-09-22T07:19:50.065Z,45.4
2022-09-22T07:25:28.810Z,45.4
2022-09-22T07:31:06.090Z,44.6
2022-09-22T07:36:49.998Z,44.6
2022-09-22T07:42:28.874Z,44.6
2022-09-22T07:48:08.906Z,44.5
2022-09-22T07:53:51.764Z,44.8
2022-09-22T07:59:30.212Z,44.8
2022-09-22T08:10:33.625Z,44.7
2022-09-22T08:16:16.519Z,44.7
2022-09-22T08:21:53.550Z,44.8
2022-09-22T08:27:37.015Z,45.4
2022-09-22T08:33:15.394Z,46.1
2022-09-22T08:38:40.066Z,46.3
2022-09-22T08:44:18.076Z,46.3
2022-09-22T08:49:44.285Z,46.3
2022-09-22T08:55:25.756Z,46.9
2022-09-22T09:01:03.339Z,47.6
2022-09-22T09:06:42.141Z,48.3
2022-09-22T09:12:20.866Z,48.6
2022-09-22T09:18:00.645Z,48.5
2022-09-22T09:23:23.597Z,48.4
2022-09-22T09:35:48.345Z,49.4
2022-09-22T09:41:27.012Z,50
2022-09-22T09:47:11.395Z,50.4
2022-09-22T09:52:49.040Z,50.9
2022-09-22T09:58:34.202Z,51.6
2022-09-22T10:04:12.559Z,52.1
2022-09-22T10:09:53.019Z,52.8
2022-09-22T10:15:19.818Z,53.4
2022-09-22T10:20:57.153Z,53.8
2022-09-22T10:26:37.755Z,53.8
2022-09-22T10:32:00.880Z,53.8
2022-09-22T10:37:41.184Z,53.5
2022-09-22T10:43:04.075Z,54
2022-09-22T10:49:08.224Z,53.9
2022-09-22T10:54:44.714Z,54.3
2022-09-22T11:00:22.371Z,54.9
2022-09-22T11:06:01.900Z,55.5
2022-09-22T11:11:40.054Z,56.1
2022-09-22T11:17:17.964Z,56.6
2022-09-22T11:22:56.114Z,56.6
2022-09-22T11:28:18.416Z,56.6
2022-09-22T11:39:30.671Z,56.4
2022-09-22T11:45:08.844Z,56.4
2022-09-22T11:50:46.312Z,56.3
2022-09-22T11:56:29.710Z,56.3
2022-09-22T12:02:06.842Z,56.1
2022-09-22T12:07:34.951Z,56.1
2022-09-22T12:13:17.130Z,56
2022-09-22T12:18:42.508Z,55.9
2022-09-22T12:24:23.654Z,55
2022-09-22T12:30:20.424Z,55.1
2022-09-22T12:36:01.784Z,55.1
2022-09-22T12:41:39.884Z,55
2022-09-22T12:47:20.138Z,54.9
2022-09-22T12:52:43.375Z,54.8
2022-09-22T12:58:05.654Z,54.8
2022-09-22T13:03:44.393Z,54.8
2022-09-22T13:14:18.994Z,54.6
2022-09-22T13:19:42.079Z,54.6
2022-09-22T13:25:23.669Z,54.6
2022-09-22T13:30:30.657Z,54.5
2022-09-22T13:36:16.301Z,54.4
2022-09-22T13:41:54.255Z,54.4
2022-09-22T13:47:17.134Z,54.3
2022-09-22T13:52:57.500Z,54.3
2022-09-22T13:58:39.699Z,54.2
2022-09-22T14:04:23.852Z,54.2
2022-09-22T14:10:15.940Z,54.1
2022-09-22T14:15:52.761Z,54.1
2022-09-22T14:21:30.905Z,54
2022-09-22T14:27:09.234Z,53.9
2022-09-22T14:32:47.371Z,53.9
2022-09-22T14:38:33.964Z,53.8
2022-09-22T14:44:35.879Z,53.8
2022-09-22T14:50:13.245Z,53.7
2022-09-22T14:55:51.635Z,53.6
2022-09-22T15:01:32.141Z,53.6
2022-09-22T15:06:54.655Z,53.4
2022-09-22T15:12:32.493Z,53.4
2022-09-22T15:17:56.106Z,53.3
2022-09-22T15:23:35.356Z,53.3
2022-09-22T15:29:15.636Z,53.3
2022-09-22T15:34:38.932Z,53.2
2022-09-22T15:40:16.365Z,53.1
2022-09-22T15:46:01.493Z,53.1
2022-09-22T15:51:23.946Z,53
2022-09-22T15:56:49.333Z,52.9
2022-09-22T16:07:54.982Z,52.8
2022-09-22T16:13:16.828Z,52.8
2022-09-22T16:18:55.078Z,52.7
2022-09-22T16:24:36.696Z,52.7
2022-09-22T16:30:13.493Z,52.6
2022-09-22T16:50:42.076Z,52.3
2022-09-22T16:56:08.610Z,52.3
2022-09-22T17:01:19.535Z,52.2
2022-09-22T17:06:58.719Z,52.2
2022-09-22T17:12:39.082Z,52.1
2022-09-22T17:18:17.542Z,52.1
2022-09-22T17:23:54.937Z,52
2022-09-22T17:34:42.151Z,51.9
2022-09-22T17:40:03.684Z,51.8
2022-09-22T17:45:26.449Z,51.8
2022-09-22T17:51:04.817Z,51.6
2022-09-22T17:56:29.598Z,51.6
2022-09-22T18:01:53.558Z,51.6
2022-09-22T18:07:32.180Z,51.6
2022-09-22T18:18:26.583Z,51.4
2022-09-22T18:24:05.279Z,51.4
2022-09-22T18:29:43.223Z,51.3
2022-09-22T18:40:48.934Z,51.3
2022-09-22T18:46:27.944Z,51.1
2022-09-22T18:52:05.792Z,51.1
2022-09-22T18:57:45.749Z,51.1
2022-09-22T19:03:25.395Z,51
2022-09-22T19:08:50.282Z,50.9
2022-09-22T19:19:58.948Z,50.6
2022-09-22T19:31:04.968Z,50.4
2022-09-22T19:36:45.732Z,50.3
2022-09-22T19:42:23.849Z,50.3
2022-09-22T19:47:47.138Z,50.2
2022-09-22T19:58:47.134Z,50.1
2022-09-22T20:09:46.903Z,49.9
2022-09-22T20:15:40.628Z,49.8
2022-09-22T20:21:19.121Z,49.8
2022-09-22T20:26:40.659Z,49.7
2022-09-22T20:32:18.725Z,49.7
2022-09-22T20:43:20.951Z,49.6
2022-09-22T20:48:58.664Z,49.5
2022-09-22T20:54:25.348Z,49.4
2022-09-22T21:00:06.328Z,49.4
2022-09-22T21:05:44.999Z,49.4
2022-09-22T21:11:22.695Z,49.3
2022-09-22T21:17:03.142Z,49.3
2022-09-22T21:22:40.449Z,49.3
2022-09-22T21:28:18.277Z,49.2
2022-09-22T21:39:23.470Z,49.1
2022-09-22T21:45:01.642Z,49.1
2022-09-22T21:50:39.515Z,49
2022-09-22T21:56:16.586Z,48.9
2022-09-22T22:01:59.176Z,48.9
2022-09-22T22:07:36.468Z,48.9
2022-09-22T22:12:57.897Z,48.8
2022-09-22T22:23:57.372Z,48.8
2022-09-22T22:29:34.996Z,48.7
2022-09-22T22:35:12.907Z,48.6
2022-09-22T22:45:40.788Z,48.6
2022-09-22T22:50:48.024Z,48.5
2022-09-22T22:56:13.009Z,48.5
2022-09-22T23:01:40.951Z,48.4
2022-09-22T23:12:44.357Z,48.3
2022-09-22T23:23:43.845Z,48.3
2022-09-22T23:29:21.327Z,48.3
2022-09-22T23:34:58.539Z,48.1
2022-09-22T23:40:21.019Z,48.1
2022-09-22T23:45:57.721Z,48.1
